KOLY/OLY METAR and TAF weather

Enter ICAO airport designator
Station Type Date Time Source
KOLY METAR 2021/05/11 17:15 UTC NOAA

KOLY 111715Z AUTO 05010KT 2 1/2SM HZ SCT120 15/03 A3029 RMK AO2 T01480033


Station Type Date Time Source
KOLY Decoded METAR 2021/05/11 17:15 UTC NOAA

Olney-Noble, Olney-Noble Airport, IL, United States (KOLY) 38-43-19N 088-10-35W
May 11, 2021 - 01:15 PM EDT / 2021.05.11 1715 UTC
Wind: from the NE (050 degrees) at 12 MPH (10 KT):0
Visibility: 2 1/2 mile(s):0
Sky conditions: partly cloudy
Weather: haze
Temperature: 58.6 F (14.8 C)
Dew Point: 37.9 F (3.3 C)
Relative Humidity: 45%
Pressure (altimeter): 30.29 in. Hg (1025 hPa)
ob: KOLY 111715Z AUTO 05010KT 2 1/2SM HZ SCT120 15/03 A3029 RMK AO2 T01480033
cycle: 17

Station Type Date Time Source
KOLY TAF UTC NOAA

Error!

Example: see airport list